Terminal Aerodrome Forecast
Issued by NWS Duluth, MN

Home | Current Version | Previous Version | Text Only | Print | Product List | Glossary On
Versions: 1 2 3 4 5 6 7 8 9 10 11 12 13 14 15 16 17 18 19 20 21 22 23 24 25 26 27 28 29 30 31 32 33 34 35 36 37 38
000
FTUS43 KDLH 130700 AAA
TAFINL
TAF AMD
KINL 130714Z 1307/1406 26005KT P6SM SKC
     FM130800 26008KT P6SM VCSH BKN060
     FM131000 27008KT P6SM SCT060
     FM131400 29014G24KT P6SM SCT050
     FM132300 29012G18KT P6SM BKN035
     FM140100 29009KT 5SM -SHRA BR BKN025 OVC050=

USA.gov is the U.S. government's official web portal to all federal, state and local government web resources and services.